createdAt,value
2018-02-16T00:04:42.296Z,0
2018-02-16T00:14:42.406Z,0
2018-02-16T00:24:42.290Z,0
2018-02-16T00:34:42.381Z,0
2018-02-16T00:44:42.590Z,0
2018-02-16T00:54:42.377Z,0
2018-02-16T01:04:42.453Z,0
2018-02-16T01:14:42.376Z,0
2018-02-16T01:24:42.472Z,0
2018-02-16T01:34:42.424Z,0
2018-02-16T01:44:42.518Z,0
2018-02-16T01:59:00.242Z,0
2018-02-16T02:04:42.342Z,0
2018-02-16T02:14:42.569Z,0
2018-02-16T02:24:42.496Z,0
2018-02-16T02:34:42.533Z,0
2018-02-16T02:44:42.501Z,0
2018-02-16T02:54:42.510Z,0
2018-02-16T03:04:42.506Z,0
2018-02-16T03:14:42.529Z,0
2018-02-16T03:24:42.507Z,0
2018-02-16T03:34:42.558Z,0
2018-02-16T03:44:42.494Z,0
2018-02-16T03:54:42.463Z,0
2018-02-16T04:04:42.544Z,0
2018-02-16T04:14:42.507Z,0
2018-02-16T04:24:42.558Z,0
2018-02-16T04:34:42.492Z,0
2018-02-16T04:44:42.589Z,0
2018-02-16T04:54:42.508Z,0
2018-02-16T05:04:42.623Z,0
2018-02-16T05:14:42.602Z,0
2018-02-16T05:24:42.530Z,0
2018-02-16T05:34:42.574Z,0
2018-02-16T05:44:42.555Z,0
2018-02-16T05:54:42.574Z,0
2018-02-16T06:04:42.584Z,4
2018-02-16T06:14:42.646Z,8
2018-02-16T06:24:42.601Z,32
2018-02-16T06:34:42.662Z,112
2018-02-16T06:44:42.608Z,296
2018-02-16T06:54:42.679Z,592
2018-02-16T07:04:42.596Z,996
2018-02-16T07:14:42.631Z,1492
2018-02-16T07:24:42.652Z,1888
2018-02-16T07:34:42.635Z,2356
2018-02-16T07:44:42.784Z,2648
2018-02-16T07:54:42.891Z,3072
2018-02-16T08:04:42.738Z,3628
2018-02-16T08:14:42.775Z,3728
2018-02-16T08:24:42.728Z,3692
2018-02-16T08:34:42.719Z,3856
2018-02-16T08:44:42.680Z,3916
2018-02-16T08:54:42.724Z,4136
2018-02-16T09:04:42.685Z,4652
2018-02-16T09:14:42.786Z,4312
2018-02-16T09:24:42.708Z,4740
2018-02-16T09:34:45.367Z,4652
2018-02-16T09:44:42.847Z,7032
2018-02-16T09:54:42.861Z,5316
2018-02-16T10:04:42.821Z,6004
2018-02-16T10:14:42.869Z,5736
2018-02-16T10:24:42.843Z,6512
2018-02-16T10:34:42.901Z,6124
2018-02-16T10:44:42.847Z,5284
2018-02-16T10:54:42.782Z,5004
2018-02-16T11:04:42.810Z,7664
2018-02-16T11:14:42.866Z,10724
2018-02-16T11:24:42.907Z,6560
2018-02-16T11:34:42.851Z,5176
2018-02-16T11:44:42.905Z,4168
2018-02-16T11:54:43.057Z,4780
2018-02-16T12:04:42.930Z,5508
2018-02-16T12:14:42.875Z,5916
2018-02-16T12:24:43.008Z,8988
2018-02-16T12:34:42.906Z,4592
2018-02-16T12:44:42.952Z,6340
2018-02-16T12:54:43.081Z,4264
2018-02-16T13:04:43.032Z,3716
2018-02-16T13:14:42.948Z,3344
2018-02-16T13:24:43.019Z,4068
2018-02-16T13:34:43.073Z,5252
2018-02-16T13:44:43.096Z,7296
2018-02-16T13:54:43.078Z,3836
2018-02-16T14:04:43.011Z,3120
2018-02-16T14:14:42.974Z,3472
2018-02-16T14:24:44.372Z,2796
2018-02-16T14:34:43.052Z,3220
2018-02-16T14:44:43.007Z,2708
2018-02-16T14:54:43.065Z,2916
2018-02-16T15:04:43.035Z,2176
2018-02-16T15:14:43.314Z,2120
2018-02-16T15:24:43.045Z,3120
2018-02-16T15:34:43.125Z,3308
2018-02-16T15:44:43.034Z,3560
2018-02-16T15:54:43.146Z,1624
2018-02-16T16:04:43.173Z,1264
2018-02-16T16:14:43.062Z,956
2018-02-16T16:24:43.107Z,664
2018-02-16T16:34:43.078Z,400
2018-02-16T16:44:43.148Z,188
2018-02-16T16:54:43.068Z,60
2018-02-16T17:04:43.136Z,12
2018-02-16T17:14:43.139Z,0
2018-02-16T17:31:10.321Z,4
2018-02-16T17:34:43.238Z,4
2018-02-16T17:44:43.321Z,4
2018-02-16T17:54:43.910Z,0
2018-02-16T18:04:43.195Z,0
2018-02-16T18:14:43.199Z,4
2018-02-16T18:24:43.148Z,4
2018-02-16T18:34:43.281Z,0
2018-02-16T18:44:43.227Z,0
2018-02-16T18:54:43.285Z,0
2018-02-16T19:04:43.249Z,0
2018-02-16T19:14:43.569Z,0
2018-02-16T19:24:43.339Z,0
2018-02-16T19:34:43.752Z,0
2018-02-16T19:44:44.781Z,0
2018-02-16T19:54:45.752Z,4
2018-02-16T20:04:46.538Z,0
2018-02-16T20:14:44.110Z,0
2018-02-16T20:24:45.788Z,0
2018-02-16T20:34:45.040Z,0
2018-02-16T20:44:43.366Z,0
2018-02-16T20:54:43.564Z,4
2018-02-16T21:04:43.669Z,4
2018-02-16T21:14:43.445Z,4
2018-02-16T21:24:43.395Z,0
2018-02-16T21:34:43.344Z,0
2018-02-16T21:44:43.321Z,0
2018-02-16T21:54:43.391Z,0
2018-02-16T22:04:43.385Z,0
2018-02-16T22:14:43.388Z,0
2018-02-16T22:24:43.390Z,0
2018-02-16T22:34:43.397Z,0
2018-02-16T22:44:43.382Z,0
2018-02-16T22:54:43.398Z,0
2018-02-16T23:04:43.391Z,0
2018-02-16T23:14:43.476Z,0
2018-02-16T23:24:43.405Z,0
2018-02-16T23:34:43.537Z,0
2018-02-16T23:44:43.401Z,0
2018-02-16T23:54:43.373Z,0
